Time;durP1;ratioP1;P1;durP2;ratioP2;P2;SDS_P1;SDS_P2;PMS_P1;PMS_P2;Temp;Humidity;BMP_temperature;BMP_pressure;BME280_temperature;BME280_humidity;BME280_pressure;Samples;Min_cycle;Max_cycle;Signal;HPM_P1;HPM_P2
2022/07/20 00:00:37;;;;;;;9.85;4.15;;;18.90;99.90;;;;;;5051460;28;20128;-78
2022/07/20 00:03:04;;;;;;;10.45;3.80;;;18.90;99.90;;;;;;5053042;28;20032;-78
2022/07/20 00:05:29;;;;;;;7.10;4.15;;;18.90;99.90;;;;;;5052531;28;20474;-78
2022/07/20 00:07:55;;;;;;;8.27;4.03;;;18.80;99.90;;;;;;5052063;28;20036;-77
2022/07/20 00:13:08;;;;;;;9.88;4.25;;;18.70;99.90;;;;;;5049168;28;20171;-78
2022/07/20 00:15:33;;;;;;;9.35;4.18;;;18.70;99.90;;;;;;5049320;28;20063;-78
2022/07/20 00:17:59;;;;;;;10.32;4.45;;;18.70;99.90;;;;;;5052070;28;20024;-77
2022/07/20 00:20:25;;;;;;;8.63;3.70;;;18.60;99.90;;;;;;5050257;28;20035;-77
2022/07/20 00:22:53;;;;;;;6.35;3.78;;;18.60;99.90;;;;;;5050653;28;20036;-78
2022/07/20 00:25:19;;;;;;;8.38;3.38;;;18.50;99.90;;;;;;5040272;28;20708;-78
2022/07/20 00:27:44;;;;;;;8.20;3.70;;;18.50;99.90;;;;;;5050108;28;20462;-78
2022/07/20 00:30:11;;;;;;;8.45;4.30;;;18.40;99.90;;;;;;5052080;28;20033;-77
2022/07/20 00:32:38;;;;;;;9.23;3.83;;;18.40;99.90;;;;;;5051986;28;20108;-78
2022/07/20 00:35:13;;;;;;;12.10;4.30;;;18.40;99.90;;;;;;5052044;28;20025;-77
2022/07/20 00:37:40;;;;;;;6.97;4.20;;;18.40;99.90;;;;;;5051950;28;20119;-78
2022/07/20 00:40:07;;;;;;;6.47;3.97;;;18.30;99.90;;;;;;5038108;28;20025;-78
2022/07/20 00:42:37;;;;;;;7.07;3.72;;;18.30;99.90;;;;;;5034063;28;20081;-78
2022/07/20 00:45:04;;;;;;;6.97;3.90;;;18.30;99.90;;;;;;5052067;28;20044;-78
2022/07/20 00:47:30;;;;;;;8.60;4.00;;;18.20;99.90;;;;;;5052231;28;20021;-77
2022/07/20 00:49:55;;;;;;;7.78;3.67;;;18.20;99.90;;;;;;5033010;28;20056;-78
2022/07/20 00:52:21;;;;;;;9.18;4.35;;;18.20;99.90;;;;;;5045087;28;20028;-77
2022/07/20 00:54:48;;;;;;;11.20;4.18;;;18.20;99.90;;;;;;5051863;28;20032;-78
2022/07/20 00:57:15;;;;;;;8.65;4.13;;;18.10;99.90;;;;;;5034382;28;20036;-77
2022/07/20 00:59:40;;;;;;;8.63;4.32;;;18.00;99.90;;;;;;5051864;28;20028;-77
2022/07/20 01:02:06;;;;;;;8.80;3.60;;;18.00;99.90;;;;;;5051511;28;20040;-77
2022/07/20 01:04:35;;;;;;;6.90;4.30;;;17.90;99.90;;;;;;5051563;28;20035;-77
2022/07/20 01:07:01;;;;;;;7.07;3.92;;;17.90;99.90;;;;;;5017492;28;20839;-78
2022/07/20 01:09:26;;;;;;;6.85;4.43;;;17.90;99.90;;;;;;5038987;28;20092;-78
2022/07/20 01:11:52;;;;;;;6.25;4.25;;;17.90;99.90;;;;;;5051543;28;20108;-77
2022/07/20 01:14:18;;;;;;;6.32;4.45;;;17.80;99.90;;;;;;5043641;28;20386;-77
2022/07/20 01:16:44;;;;;;;6.88;3.90;;;17.80;99.90;;;;;;5033401;28;20030;-77
2022/07/20 01:19:12;;;;;;;9.95;4.05;;;17.70;99.90;;;;;;5046452;28;20017;-77
2022/07/20 01:21:41;;;;;;;10.65;4.22;;;17.70;99.90;;;;;;5050952;28;20478;-77
2022/07/20 01:24:11;;;;;;;5.40;3.75;;;17.60;99.90;;;;;;5051161;28;20474;-77
2022/07/20 01:26:39;;;;;;;8.93;4.32;;;17.60;99.90;;;;;;5042643;28;20493;-77
2022/07/20 01:29:05;;;;;;;8.10;4.05;;;17.50;99.90;;;;;;5046462;28;20033;-77
2022/07/20 01:31:30;;;;;;;8.32;3.72;;;17.50;99.90;;;;;;5051145;28;20090;-77
2022/07/20 01:33:56;;;;;;;8.07;3.67;;;17.50;99.90;;;;;;5050695;28;20474;-78
2022/07/20 01:36:21;;;;;;;8.77;3.90;;;17.50;99.90;;;;;;5051201;28;20028;-77
2022/07/20 01:38:47;;;;;;;7.70;3.88;;;17.40;99.90;;;;;;5050673;28;20083;-78
2022/07/20 01:41:12;;;;;;;8.25;4.13;;;17.40;99.90;;;;;;5051054;28;20033;-77
2022/07/20 01:43:38;;;;;;;6.35;3.95;;;17.30;99.90;;;;;;5045927;28;20148;-77
2022/07/20 01:46:04;;;;;;;6.40;4.65;;;17.30;99.90;;;;;;5041905;28;20481;-77
2022/07/20 01:48:29;;;;;;;7.93;4.30;;;17.30;99.90;;;;;;5050496;28;20501;-77
2022/07/20 01:50:57;;;;;;;6.15;3.92;;;17.20;99.90;;;;;;5050707;28;20470;-78
2022/07/20 01:53:23;;;;;;;10.02;4.20;;;17.20;99.90;;;;;;5028215;28;20395;-77
2022/07/20 01:55:51;;;;;;;7.82;4.43;;;17.20;99.90;;;;;;5050699;28;20025;-77
2022/07/20 01:58:16;;;;;;;8.40;4.60;;;17.10;99.90;;;;;;5050741;28;20025;-77
2022/07/20 02:00:42;;;;;;;7.90;4.07;;;17.10;99.90;;;;;;5050533;28;20631;-77
2022/07/20 02:03:08;;;;;;;6.57;4.38;;;17.10;99.90;;;;;;5039997;28;20032;-77
2022/07/20 02:05:34;;;;;;;6.72;4.05;;;17.00;99.90;;;;;;5050728;28;20493;-77
2022/07/20 02:07:59;;;;;;;9.27;4.07;;;17.10;99.90;;;;;;5050950;28;20020;-77
2022/07/20 02:10:25;;;;;;;10.10;4.25;;;17.00;99.90;;;;;;5048843;28;20048;-77
2022/07/20 02:12:50;;;;;;;9.93;4.03;;;17.00;99.90;;;;;;5046579;28;20127;-77
2022/07/20 02:18:07;;;;;;;10.95;4.40;;;16.90;99.90;;;;;;5051135;28;20036;-76
2022/07/20 02:20:33;;;;;;;13.43;4.30;;;16.90;99.90;;;;;;5049834;28;20048;-77
2022/07/20 02:23:00;;;;;;;7.40;3.80;;;16.90;99.90;;;;;;5043893;28;20109;-76
2022/07/20 02:25:25;;;;;;;8.90;4.32;;;16.90;99.90;;;;;;5043540;28;20794;-76
2022/07/20 02:27:51;;;;;;;7.32;4.00;;;16.80;99.90;;;;;;5036753;28;20029;-76
2022/07/20 02:30:16;;;;;;;8.18;4.35;;;16.80;99.90;;;;;;5032424;28;20032;-76
2022/07/20 02:32:42;;;;;;;6.55;4.28;;;16.80;99.90;;;;;;5050567;28;20108;-76
2022/07/20 02:35:08;;;;;;;7.28;4.22;;;16.80;99.90;;;;;;5050456;28;20401;-76
2022/07/20 02:37:33;;;;;;;8.82;4.47;;;16.80;99.90;;;;;;5041969;28;20025;-76
2022/07/20 02:39:59;;;;;;;6.93;4.28;;;16.70;99.90;;;;;;5047178;28;20025;-77
2022/07/20 02:42:24;;;;;;;8.07;4.82;;;16.70;99.90;;;;;;5049571;28;20124;-78
2022/07/20 02:44:50;;;;;;;6.57;4.13;;;16.70;99.90;;;;;;5044702;28;20041;-78
2022/07/20 02:47:15;;;;;;;6.82;4.20;;;16.70;99.90;;;;;;5044059;28;20032;-78
2022/07/20 02:49:41;;;;;;;8.65;4.60;;;16.70;99.90;;;;;;5042072;28;20378;-78
2022/07/20 02:52:06;;;;;;;8.75;4.45;;;16.60;99.90;;;;;;5052457;28;20047;-79
2022/07/20 02:54:32;;;;;;;7.40;4.10;;;16.60;99.90;;;;;;5035280;28;20150;-78
2022/07/20 02:56:57;;;;;;;7.63;4.68;;;16.60;99.90;;;;;;5050650;28;20030;-78
2022/07/20 02:59:23;;;;;;;6.90;3.88;;;16.50;99.90;;;;;;5043550;28;20487;-79
2022/07/20 03:01:48;;;;;;;7.07;4.05;;;16.50;99.90;;;;;;5053401;28;20025;-79
2022/07/20 03:04:14;;;;;;;7.07;4.80;;;16.50;99.90;;;;;;5052857;28;20415;-79
2022/07/20 03:06:40;;;;;;;6.72;4.15;;;16.40;99.90;;;;;;5034776;28;20028;-79
2022/07/20 03:09:05;;;;;;;8.82;4.22;;;16.40;99.90;;;;;;5052635;28;20123;-79
2022/07/20 03:11:31;;;;;;;12.85;4.88;;;16.30;99.90;;;;;;5034856;28;20072;-79
2022/07/20 03:13:56;;;;;;;13.68;4.70;;;16.30;99.90;;;;;;5045527;28;20030;-79
2022/07/20 03:16:22;;;;;;;11.38;5.10;;;16.30;99.90;;;;;;5052401;28;20021;-79
2022/07/20 03:18:47;;;;;;;11.55;4.75;;;16.30;99.90;;;;;;5052151;28;20033;-79
2022/07/20 03:21:13;;;;;;;15.13;5.40;;;16.20;99.90;;;;;;5052313;28;20033;-79
2022/07/20 03:23:38;;;;;;;11.65;4.78;;;16.20;99.90;;;;;;5052828;28;20029;-79
2022/07/20 03:26:04;;;;;;;12.57;5.22;;;16.20;99.90;;;;;;5052616;28;20029;-79
2022/07/20 03:28:30;;;;;;;10.20;4.32;;;16.20;99.90;;;;;;5045472;28;20025;-79
2022/07/20 03:30:55;;;;;;;8.20;4.30;;;16.20;99.90;;;;;;5052280;28;20377;-79
2022/07/20 03:33:21;;;;;;;12.02;5.18;;;16.20;99.90;;;;;;5052340;28;20143;-79
2022/07/20 03:35:47;;;;;;;12.45;4.80;;;16.10;99.90;;;;;;5052907;28;20033;-79
2022/07/20 03:38:12;;;;;;;8.50;4.63;;;16.10;99.90;;;;;;5022259;28;20032;-78
2022/07/20 03:40:38;;;;;;;7.10;4.47;;;16.10;99.90;;;;;;5052317;28;20025;-78
2022/07/20 03:43:03;;;;;;;8.02;4.10;;;16.00;99.90;;;;;;5047978;28;20051;-78
2022/07/20 03:45:29;;;;;;;12.77;4.28;;;16.00;99.90;;;;;;5052497;28;20029;-78
2022/07/20 03:47:55;;;;;;;11.50;4.57;;;16.00;99.90;;;;;;5052358;28;20033;-78
2022/07/20 03:50:20;;;;;;;11.98;4.70;;;15.90;99.90;;;;;;5052250;28;20025;-78
2022/07/20 03:52:46;;;;;;;7.43;4.43;;;15.90;99.90;;;;;;5052440;28;20223;-78
2022/07/20 03:55:11;;;;;;;8.27;4.72;;;15.90;99.90;;;;;;5052168;28;20017;-78
2022/07/20 03:57:37;;;;;;;7.95;4.65;;;15.90;99.90;;;;;;5047463;28;20413;-78
2022/07/20 04:00:04;;;;;;;10.27;4.90;;;15.90;99.90;;;;;;5046672;28;20044;-77
2022/07/20 04:02:30;;;;;;;13.73;5.15;;;15.90;99.90;;;;;;5051111;28;20033;-78
2022/07/20 04:04:55;;;;;;;9.23;4.80;;;15.90;99.90;;;;;;5052025;28;20031;-78
2022/07/20 04:07:21;;;;;;;10.00;4.93;;;15.90;99.90;;;;;;5051695;28;20466;-79
2022/07/20 04:09:46;;;;;;;9.88;4.82;;;16.00;99.90;;;;;;5050034;28;20518;-79
2022/07/20 04:12:30;;;;;;;8.93;4.32;;;16.00;99.90;;;;;;5051914;28;20181;-71
2022/07/20 04:14:56;;;;;;;9.75;4.55;;;16.10;99.90;;;;;;5042850;28;20478;-72
2022/07/20 04:17:22;;;;;;;10.25;4.88;;;16.10;99.90;;;;;;5026753;28;20043;-69
2022/07/20 04:19:49;;;;;;;10.73;4.97;;;16.20;99.90;;;;;;5029359;28;20108;-70
2022/07/20 04:22:15;;;;;;;10.55;4.95;;;16.20;99.90;;;;;;5040061;28;20091;-71
2022/07/20 04:24:40;;;;;;;11.13;5.25;;;16.30;99.90;;;;;;5040409;28;20437;-70
2022/07/20 04:27:06;;;;;;;10.50;4.90;;;16.30;99.90;;;;;;5046346;28;20458;-70
2022/07/20 04:29:32;;;;;;;9.02;4.45;;;16.40;99.90;;;;;;5053960;28;20025;-70
2022/07/20 04:31:58;;;;;;;8.13;4.80;;;16.40;99.90;;;;;;5046492;28;20022;-70
2022/07/20 04:34:23;;;;;;;12.95;5.10;;;16.50;99.90;;;;;;5031814;28;20111;-71
2022/07/20 04:36:49;;;;;;;9.60;5.20;;;16.60;99.90;;;;;;5040420;28;20017;-70
2022/07/20 04:39:15;;;;;;;9.93;4.63;;;16.60;99.90;;;;;;5051774;28;20018;-68
2022/07/20 04:41:40;;;;;;;11.13;4.85;;;16.70;99.90;;;;;;5047744;28;20090;-68
2022/07/20 04:44:06;;;;;;;8.70;4.80;;;16.80;99.90;;;;;;5047783;28;20025;-70
2022/07/20 04:46:32;;;;;;;11.65;5.45;;;16.90;99.90;;;;;;5040716;28;20070;-69
2022/07/20 04:48:57;;;;;;;9.45;5.03;;;16.90;99.90;;;;;;5050845;28;20017;-69
2022/07/20 04:51:23;;;;;;;6.93;4.97;;;17.00;99.90;;;;;;5047535;28;20147;-67
2022/07/20 04:53:49;;;;;;;12.45;5.60;;;17.10;99.90;;;;;;5047889;28;20179;-70
2022/07/20 04:56:15;;;;;;;10.77;5.45;;;17.20;99.90;;;;;;5050577;28;20017;-67
2022/07/20 04:58:40;;;;;;;12.90;5.63;;;17.30;99.90;;;;;;5049212;28;20021;-68
2022/07/20 05:01:06;;;;;;;12.27;5.65;;;17.40;99.90;;;;;;5048969;28;20029;-68
2022/07/20 05:03:32;;;;;;;13.60;5.75;;;17.40;99.90;;;;;;5048888;28;20033;-68
2022/07/20 05:05:57;;;;;;;12.15;5.50;;;17.50;99.90;;;;;;5047003;28;20082;-69
2022/07/20 05:08:23;;;;;;;14.68;5.88;;;17.60;99.90;;;;;;5048647;28;20037;-68
2022/07/20 05:10:48;;;;;;;8.63;5.18;;;17.60;99.90;;;;;;5047020;28;20033;-68
2022/07/20 05:13:14;;;;;;;11.25;5.40;;;17.70;99.90;;;;;;5047258;28;20032;-68
2022/07/20 05:15:39;;;;;;;8.23;5.25;;;17.80;99.90;;;;;;5050111;28;20048;-68
2022/07/20 05:18:05;;;;;;;12.30;6.05;;;17.80;99.90;;;;;;5050045;28;20032;-68
2022/07/20 05:20:31;;;;;;;19.02;6.25;;;17.90;99.90;;;;;;5051278;28;20342;-76
2022/07/20 05:22:56;;;;;;;10.50;5.22;;;18.00;99.90;;;;;;5049662;28;20119;-68
2022/07/20 05:25:22;;;;;;;16.23;5.72;;;18.10;99.90;;;;;;5051121;28;20036;-67
2022/07/20 05:27:47;;;;;;;11.13;5.78;;;18.20;99.90;;;;;;5051011;28;20428;-68
2022/07/20 05:30:13;;;;;;;15.45;6.20;;;18.30;99.90;;;;;;5050818;28;20036;-68
2022/07/20 05:32:39;;;;;;;8.93;5.20;;;18.30;99.90;;;;;;5050839;28;20033;-69
2022/07/20 05:35:06;;;;;;;10.80;5.50;;;18.40;99.90;;;;;;5050300;28;20127;-69
2022/07/20 05:37:31;;;;;;;14.35;5.50;;;18.50;99.90;;;;;;5049785;28;20036;-72
2022/07/20 05:39:57;;;;;;;11.07;5.75;;;18.60;99.90;;;;;;5050072;28;20024;-71
2022/07/20 05:42:22;;;;;;;9.15;5.30;;;18.70;99.90;;;;;;5049324;28;20116;-71
2022/07/20 05:44:48;;;;;;;15.75;5.13;;;18.90;99.90;;;;;;5050105;28;20457;-71
2022/07/20 05:47:14;;;;;;;11.65;5.22;;;19.00;99.90;;;;;;5050236;28;20082;-71
2022/07/20 05:49:40;;;;;;;11.75;5.07;;;19.20;99.90;;;;;;5047739;28;20025;-71
2022/07/20 05:52:05;;;;;;;15.38;5.60;;;19.30;99.90;;;;;;5046703;28;20537;-71
2022/07/20 05:54:31;;;;;;;10.50;4.95;;;19.50;99.90;;;;;;5044764;28;20482;-72
2022/07/20 05:56:57;;;;;;;7.13;4.57;;;19.70;99.90;;;;;;5027103;28;20036;-71
2022/07/20 05:59:22;;;;;;;13.90;4.72;;;19.80;99.90;;;;;;5046980;28;20037;-83
2022/07/20 06:01:48;;;;;;;10.00;5.63;;;19.90;99.90;;;;;;5040501;28;20064;-71
2022/07/20 06:04:14;;;;;;;12.63;4.43;;;20.10;99.90;;;;;;5031017;28;20033;-71
2022/07/20 06:06:40;;;;;;;14.48;5.32;;;20.30;99.90;;;;;;5049128;28;20108;-71
2022/07/20 06:09:07;;;;;;;8.05;4.70;;;20.40;99.90;;;;;;5049635;28;20029;-71
2022/07/20 06:11:34;;;;;;;11.27;5.85;;;20.50;99.90;;;;;;5039161;28;20056;-72
2022/07/20 06:14:00;;;;;;;13.30;5.25;;;20.70;99.90;;;;;;5039810;28;20040;-72
2022/07/20 06:16:26;;;;;;;10.85;5.20;;;20.80;99.90;;;;;;5046724;28;20025;-71
2022/07/20 06:18:51;;;;;;;13.65;5.78;;;20.90;99.90;;;;;;5047952;28;20020;-72
2022/07/20 06:21:17;;;;;;;8.63;4.85;;;21.00;99.90;;;;;;5045909;28;20474;-71
2022/07/20 06:23:43;;;;;;;8.35;5.25;;;21.20;99.90;;;;;;5046389;28;20071;-71
2022/07/20 06:26:08;;;;;;;9.63;4.90;;;21.30;99.90;;;;;;5049581;28;20029;-71
2022/07/20 06:28:35;;;;;;;9.27;5.35;;;21.40;99.90;;;;;;5050211;28;20033;-72
2022/07/20 06:31:00;;;;;;;8.90;4.85;;;21.70;99.90;;;;;;5047572;28;20038;-71
2022/07/20 06:33:26;;;;;;;16.10;5.13;;;21.80;99.90;;;;;;5044935;28;20031;-71
2022/07/20 06:35:52;;;;;;;12.55;6.13;;;22.00;99.90;;;;;;5043526;28;20021;-71
2022/07/20 06:38:18;;;;;;;10.43;5.47;;;22.10;99.90;;;;;;5049605;28;20021;-71
2022/07/20 06:40:44;;;;;;;15.70;5.15;;;22.20;99.90;;;;;;5047999;28;20063;-71
2022/07/20 06:43:10;;;;;;;9.00;5.35;;;22.40;99.90;;;;;;5048802;28;20102;-72
2022/07/20 06:45:36;;;;;;;7.65;5.18;;;22.50;99.90;;;;;;5048572;28;20494;-71
2022/07/20 06:48:02;;;;;;;10.23;5.32;;;22.70;99.90;;;;;;5041331;28;20037;-71
2022/07/20 06:50:27;;;;;;;15.95;5.55;;;22.80;99.90;;;;;;5041789;28;20033;-72
2022/07/20 06:52:53;;;;;;;10.52;5.80;;;22.90;99.90;;;;;;5039576;28;20025;-71
2022/07/20 06:55:19;;;;;;;11.82;5.38;;;23.00;99.90;;;;;;5044849;28;20013;-71
2022/07/20 06:57:44;;;;;;;11.15;5.70;;;23.20;99.90;;;;;;5043413;28;20025;-71
2022/07/20 07:00:12;;;;;;;14.00;5.93;;;23.30;99.90;;;;;;5044631;28;20460;-71
2022/07/20 07:02:37;;;;;;;15.55;5.82;;;23.40;99.90;;;;;;5042132;28;20036;-71
2022/07/20 07:05:03;;;;;;;13.23;5.78;;;23.60;99.90;;;;;;5041692;28;20036;-71
2022/07/20 07:07:29;;;;;;;12.95;6.03;;;23.70;99.90;;;;;;5044869;28;20382;-71
2022/07/20 07:09:55;;;;;;;7.97;5.93;;;23.80;99.90;;;;;;5045450;28;20037;-80
2022/07/20 07:12:21;;;;;;;8.55;5.80;;;23.90;99.90;;;;;;5043655;28;20053;-80
2022/07/20 07:14:46;;;;;;;12.25;6.15;;;23.90;99.90;;;;;;5044629;28;20044;-80
2022/07/20 07:17:12;;;;;;;8.75;5.30;;;24.00;99.90;;;;;;5049545;28;20021;-80
2022/07/20 07:19:40;;;;;;;11.43;6.30;;;24.10;99.90;;;;;;5047430;28;20052;-80
2022/07/20 07:22:05;;;;;;;12.52;5.85;;;24.20;99.90;;;;;;5041350;28;20021;-80
2022/07/20 07:24:32;;;;;;;14.60;5.55;;;24.30;99.90;;;;;;5040268;28;20025;-80
2022/07/20 07:26:58;;;;;;;13.35;5.50;;;24.40;99.90;;;;;;5049394;28;20658;-80
2022/07/20 07:29:24;;;;;;;9.27;5.32;;;24.60;99.90;;;;;;5048667;28;20032;-80
2022/07/20 07:31:50;;;;;;;14.60;6.22;;;24.60;99.90;;;;;;5049420;28;20108;-80
2022/07/20 07:34:15;;;;;;;9.52;5.28;;;24.70;99.90;;;;;;5049439;28;20162;-80
2022/07/20 07:36:41;;;;;;;10.05;5.50;;;24.80;99.90;;;;;;5048603;28;20021;-80
2022/07/20 07:39:07;;;;;;;14.98;5.20;;;25.00;99.90;;;;;;5031480;28;20025;-80
2022/07/20 07:41:32;;;;;;;13.57;5.63;;;25.00;99.90;;;;;;5031032;28;20037;-80
2022/07/20 07:43:58;;;;;;;12.05;5.63;;;25.30;99.90;;;;;;5047477;28;20036;-80
2022/07/20 07:46:24;;;;;;;9.95;5.13;;;25.40;99.90;;;;;;5048155;28;20059;-80
2022/07/20 07:48:50;;;;;;;14.68;5.60;;;25.50;99.90;;;;;;5049330;28;20028;-80
2022/07/20 07:51:16;;;;;;;11.98;5.93;;;25.60;99.90;;;;;;5048176;28;20082;-80
2022/07/20 07:53:41;;;;;;;16.88;5.82;;;25.70;99.90;;;;;;5043072;28;20120;-80
2022/07/20 07:56:07;;;;;;;10.70;5.95;;;25.80;99.90;;;;;;5043468;28;20040;-80
2022/07/20 07:58:33;;;;;;;8.73;5.47;;;25.90;99.90;;;;;;5045632;28;20025;-80
2022/07/20 08:00:58;;;;;;;10.88;5.88;;;26.00;99.90;;;;;;5048341;28;20037;-80
2022/07/20 08:03:24;;;;;;;11.48;5.57;;;26.10;99.90;;;;;;5049110;28;20025;-80
2022/07/20 08:05:50;;;;;;;10.75;5.93;;;26.20;99.90;;;;;;5040570;28;20036;-80
2022/07/20 08:08:16;;;;;;;13.07;5.90;;;26.40;99.90;;;;;;5048349;28;20116;-80
2022/07/20 08:10:43;;;;;;;9.60;5.55;;;26.50;99.90;;;;;;5046010;28;20028;-80
2022/07/20 08:13:08;;;;;;;7.90;5.50;;;26.60;99.90;;;;;;5043526;28;20042;-80
2022/07/20 08:15:34;;;;;;;9.50;5.72;;;26.70;99.90;;;;;;5047467;28;20029;-80
2022/07/20 08:18:00;;;;;;;8.20;4.88;;;26.90;99.90;;;;;;5047137;28;20432;-80
2022/07/20 08:20:26;;;;;;;11.25;5.40;;;27.00;99.90;;;;;;5048625;28;20469;-80
2022/07/20 08:22:52;;;;;;;7.30;5.47;;;27.10;99.90;;;;;;5045025;28;20068;-80
2022/07/20 08:25:18;;;;;;;9.30;5.25;;;27.20;99.90;;;;;;5040096;28;20508;-80
2022/07/20 08:27:44;;;;;;;14.23;6.03;;;27.20;99.90;;;;;;5048645;28;20028;-80
2022/07/20 08:30:10;;;;;;;9.60;5.47;;;27.30;99.90;;;;;;5048280;28;20028;-80
2022/07/20 08:32:35;;;;;;;10.18;5.15;;;27.40;99.90;;;;;;5047464;28;20115;-80
2022/07/20 08:35:01;;;;;;;12.25;5.93;;;27.50;99.90;;;;;;5032834;28;20108;-80
2022/07/20 08:37:26;;;;;;;6.82;5.40;;;27.60;99.90;;;;;;5032094;28;20048;-80
2022/07/20 08:39:52;;;;;;;11.55;6.05;;;27.50;99.90;;;;;;5037896;28;20037;-80
2022/07/20 08:42:18;;;;;;;11.15;5.38;;;27.60;99.90;;;;;;5047673;28;20033;-79
2022/07/20 08:44:44;;;;;;;9.68;5.75;;;27.60;99.90;;;;;;5046172;28;20043;-80
2022/07/20 08:47:12;;;;;;;10.00;5.22;;;27.60;99.90;;;;;;5020594;28;20052;-80
2022/07/20 08:49:38;;;;;;;11.95;5.50;;;27.80;99.90;;;;;;5038726;28;20040;-79
2022/07/20 08:52:04;;;;;;;9.90;5.57;;;27.90;99.90;;;;;;5021970;28;20462;-80
2022/07/20 08:54:31;;;;;;;15.63;5.57;;;28.00;99.90;;;;;;5037475;28;20075;-79
2022/07/20 08:56:57;;;;;;;12.80;5.90;;;28.20;99.90;;;;;;5038651;28;20033;-80
2022/07/20 08:59:22;;;;;;;14.95;6.22;;;28.30;99.90;;;;;;5036639;28;20502;-80
2022/07/20 09:02:03;;;;;;;19.25;5.93;;;28.30;99.90;;;;;;5036541;28;20123;-80
2022/07/20 09:04:29;;;;;;;10.45;5.05;;;28.40;99.90;;;;;;5038732;28;20033;-79
2022/07/20 09:06:55;;;;;;;16.65;5.65;;;28.50;99.90;;;;;;5035532;28;20067;-80
2022/07/20 09:09:22;;;;;;;10.30;5.50;;;28.60;99.90;;;;;;5042769;28;20079;-80
2022/07/20 09:11:49;;;;;;;7.85;5.38;;;28.70;99.90;;;;;;5041103;28;20045;-80
2022/07/20 09:14:42;;;;;;;16.90;5.47;;;28.80;99.90;;;;;;5039462;28;20113;-80
2022/07/20 09:17:20;;;;;;;10.45;5.30;;;28.90;99.90;;;;;;5036509;28;20025;-80
2022/07/20 09:20:08;;;;;;;11.07;5.00;;;29.10;99.90;;;;;;5042590;28;20071;-79
2022/07/20 09:22:36;;;;;;;10.27;4.90;;;29.30;99.90;;;;;;5041180;28;20202;-80
2022/07/20 09:25:11;;;;;;;10.18;5.13;;;29.30;99.90;;;;;;5039030;28;20375;-80
2022/07/20 09:27:37;;;;;;;13.88;5.57;;;29.40;99.90;;;;;;5033822;28;20028;-78
2022/07/20 09:30:10;;;;;;;14.80;5.55;;;29.50;99.90;;;;;;5028482;28;20494;-78
2022/07/20 09:32:50;;;;;;;10.55;5.10;;;29.70;99.60;;;;;;5033650;28;20104;-78
2022/07/20 09:35:15;;;;;;;8.45;5.00;;;29.90;99.70;;;;;;5047614;28;20767;-78
2022/07/20 09:37:41;;;;;;;11.63;5.35;;;30.30;98.20;;;;;;5042529;28;20074;-78
2022/07/20 09:40:07;;;;;;;12.05;4.90;;;30.60;97.20;;;;;;5048604;28;20079;-78
2022/07/20 09:42:46;;;;;;;11.93;6.40;;;31.00;96.50;;;;;;5040350;28;20482;-78
2022/07/20 09:45:29;;;;;;;13.25;5.47;;;31.20;96.40;;;;;;5051684;28;20166;-78
2022/07/20 09:48:08;;;;;;;10.48;4.90;;;31.60;95.30;;;;;;5050960;28;20025;-78
2022/07/20 09:50:40;;;;;;;9.40;5.15;;;31.90;94.40;;;;;;5019730;28;20044;-78
2022/07/20 09:53:08;;;;;;;10.32;4.82;;;32.30;92.00;;;;;;5051352;28;20021;-79
2022/07/20 09:55:35;;;;;;;11.07;4.38;;;32.70;92.00;;;;;;5051569;28;20856;-79
2022/07/20 09:58:00;;;;;;;12.98;4.43;;;33.00;87.90;;;;;;5050631;28;20073;-79
2022/07/20 10:00:28;;;;;;;13.23;4.50;;;33.20;88.40;;;;;;5048175;28;20108;-77
2022/07/20 10:02:57;;;;;;;10.93;4.30;;;33.40;85.70;;;;;;5045313;28;20505;-77
2022/07/20 10:05:23;;;;;;;11.30;4.10;;;33.70;85.50;;;;;;5050827;28;20590;-77
2022/07/20 10:07:49;;;;;;;9.63;3.80;;;33.80;84.40;;;;;;5036537;28;20029;-77
2022/07/20 10:10:15;;;;;;;11.45;4.18;;;34.10;84.60;;;;;;5030838;28;20032;-77
2022/07/20 10:12:41;;;;;;;10.25;3.60;;;34.20;81.60;;;;;;5050309;28;20049;-78
2022/07/20 10:15:16;;;;;;;9.35;3.88;;;34.30;78.20;;;;;;5039464;28;20377;-77
2022/07/20 10:17:43;;;;;;;10.45;4.35;;;34.50;74.10;;;;;;5050497;28;20025;-78
2022/07/20 10:20:31;;;;;;;7.90;3.88;;;34.60;73.20;;;;;;5041821;28;20028;-77
2022/07/20 10:23:14;;;;;;;12.48;4.45;;;34.60;72.50;;;;;;5049000;28;20056;-78
2022/07/20 10:25:44;;;;;;;10.88;4.13;;;34.70;72.80;;;;;;5051104;28;20128;-77
2022/07/20 10:28:32;;;;;;;13.77;3.67;;;34.80;71.10;;;;;;5051477;28;20051;-77
2022/07/20 10:31:08;;;;;;;11.95;4.28;;;34.90;71.80;;;;;;5049936;28;20128;-78
2022/07/20 10:33:39;;;;;;;8.10;3.97;;;35.10;70.10;;;;;;5031745;28;20101;-78
2022/07/20 10:38:55;;;;;;;5.85;3.38;;;35.50;68.60;;;;;;5043797;28;20424;-78
2022/07/20 10:41:32;;;;;;;9.93;3.90;;;35.60;67.40;;;;;;5051964;28;20109;-77
2022/07/20 10:44:19;;;;;;;9.40;3.78;;;35.80;65.80;;;;;;5042459;28;20025;-77
2022/07/20 10:46:47;;;;;;;9.77;4.28;;;35.90;67.30;;;;;;5032371;28;20021;-77
2022/07/20 10:49:12;;;;;;;7.75;4.20;;;36.00;65.00;;;;;;5043022;28;20029;-78
2022/07/20 10:51:38;;;;;;;9.32;4.07;;;36.10;63.90;;;;;;5048022;28;20037;-78
2022/07/20 10:54:32;;;;;;;10.45;3.95;;;36.30;63.60;;;;;;5033154;28;20105;-77
2022/07/20 10:57:01;;;;;;;14.03;4.03;;;36.10;60.00;;;;;;5051009;28;20044;-77
2022/07/20 10:59:27;;;;;;;6.93;3.08;;;36.20;60.80;;;;;;5041153;28;20729;-78
2022/07/20 11:01:53;;;;;;;7.07;3.38;;;36.20;58.70;;;;;;5036564;28;20029;-77
2022/07/20 11:04:21;;;;;;;6.00;3.28;;;36.40;59.70;;;;;;5042581;28;20095;-78
2022/07/20 11:06:47;;;;;;;6.13;3.00;;;36.50;57.70;;;;;;5046736;28;20021;-78
2022/07/20 11:09:13;;;;;;;7.35;3.30;;;36.70;57.40;;;;;;5051817;28;20104;-79
2022/07/20 11:11:40;;;;;;;10.60;3.40;;;36.90;56.90;;;;;;5050235;28;20131;-76
2022/07/20 11:14:07;;;;;;;13.18;3.88;;;37.10;57.40;;;;;;5043326;28;20059;-76
2022/07/20 11:16:35;;;;;;;7.65;3.72;;;37.20;55.60;;;;;;5048606;28;20040;-75
2022/07/20 11:19:02;;;;;;;7.07;3.47;;;37.20;55.40;;;;;;5050618;28;20544;-76
2022/07/20 11:21:38;;;;;;;5.45;3.30;;;37.20;56.30;;;;;;5050505;28;20124;-75
2022/07/20 11:24:05;;;;;;;6.75;3.47;;;37.20;54.00;;;;;;5040276;28;20032;-75
2022/07/20 11:26:31;;;;;;;7.50;3.30;;;37.10;55.60;;;;;;5040186;28;20025;-75
2022/07/20 11:28:57;;;;;;;9.88;3.95;;;37.10;54.70;;;;;;5032488;28;20040;-75
2022/07/20 11:31:32;;;;;;;6.82;3.05;;;37.20;55.60;;;;;;5050496;28;20111;-75
2022/07/20 11:33:59;;;;;;;5.07;3.17;;;37.40;54.10;;;;;;5047668;28;20024;-75
2022/07/20 11:36:31;;;;;;;7.57;3.08;;;37.50;52.50;;;;;;5050637;28;20111;-75
2022/07/20 11:38:59;;;;;;;4.78;3.35;;;37.60;54.30;;;;;;5050020;28;20024;-75
2022/07/20 11:41:36;;;;;;;7.53;3.38;;;37.70;53.10;;;;;;5032608;28;20377;-75
2022/07/20 11:44:03;;;;;;;6.57;3.15;;;37.50;53.00;;;;;;5050853;28;20082;-75
2022/07/20 11:46:35;;;;;;;8.93;3.63;;;37.50;53.20;;;;;;5051136;28;20046;-75
2022/07/20 11:49:03;;;;;;;7.18;3.63;;;37.60;53.30;;;;;;5051000;28;20013;-75
2022/07/20 11:51:31;;;;;;;8.00;3.33;;;37.70;53.50;;;;;;5043099;28;20445;-75
2022/07/20 11:53:57;;;;;;;9.93;3.63;;;38.00;53.70;;;;;;5051132;28;20442;-75
2022/07/20 11:56:27;;;;;;;8.20;3.72;;;37.90;53.30;;;;;;5049952;28;20029;-75
2022/07/20 11:58:55;;;;;;;7.88;3.40;;;38.50;50.50;;;;;;5047991;28;20072;-75
2022/07/20 12:01:26;;;;;;;6.57;3.50;;;38.70;50.50;;;;;;5039824;28;20037;-75
2022/07/20 12:03:55;;;;;;;8.57;3.47;;;38.70;50.50;;;;;;5026586;28;20035;-75
2022/07/20 12:06:21;;;;;;;10.23;2.90;;;38.60;49.60;;;;;;5042695;28;20029;-75
2022/07/20 12:09:08;;;;;;;7.10;3.17;;;38.60;48.90;;;;;;5050445;28;20025;-76
2022/07/20 12:11:36;;;;;;;7.13;3.10;;;38.80;49.30;;;;;;5039607;28;20128;-76
2022/07/20 12:14:02;;;;;;;5.82;3.10;;;39.20;46.60;;;;;;5035645;28;20036;-76
2022/07/20 12:16:40;;;;;;;7.15;3.28;;;39.30;47.40;;;;;;5037111;28;20025;-76
2022/07/20 12:19:06;;;;;;;8.65;3.33;;;39.50;47.60;;;;;;5040870;28;20057;-77
2022/07/20 12:21:42;;;;;;;7.18;3.40;;;39.30;47.20;;;;;;5039115;28;20122;-76
2022/07/20 12:24:07;;;;;;;5.65;3.28;;;39.30;48.70;;;;;;5036067;28;20029;-76
2022/07/20 12:26:37;;;;;;;6.32;3.53;;;39.50;47.50;;;;;;5035461;28;20048;-76
2022/07/20 12:29:21;;;;;;;10.85;3.55;;;39.50;47.00;;;;;;5031889;28;20445;-76
2022/07/20 12:32:03;;;;;;;8.75;3.53;;;39.70;47.00;;;;;;5043552;28;20470;-76
2022/07/20 12:34:31;;;;;;;10.50;3.60;;;39.60;47.90;;;;;;5049973;28;20036;-76
2022/07/20 12:36:56;;;;;;;6.32;3.20;;;39.60;48.50;;;;;;5031756;28;20029;-76
2022/07/20 12:40:02;;;;;;;9.65;3.38;;;40.10;46.90;;;;;;5047755;28;20098;-75
2022/07/20 12:42:28;;;;;;;3.88;2.88;;;40.00;47.60;;;;;;5036967;28;20032;-75
2022/07/20 12:44:59;;;;;;;6.30;3.05;;;40.10;45.60;;;;;;5036881;28;20489;-76
2022/07/20 12:47:25;;;;;;;8.32;3.67;;;40.10;46.10;;;;;;5049828;28;20589;-76
2022/07/20 12:49:51;;;;;;;8.30;3.35;;;39.90;46.60;;;;;;5035376;28;20104;-76
2022/07/20 12:52:17;;;;;;;6.80;3.25;;;39.90;45.90;;;;;;5034442;28;20030;-75